sensor_id;sensor_type;location;lat;lon;timestamp;P1;durP1;ratioP1;P2;durP2;ratioP2
14098;SDS011;7126;48.458;7.930;2022-09-01T00:01:56;1.40;;;1.40;;
14098;SDS011;7126;48.458;7.930;2022-09-01T00:04:23;1.35;;;1.35;;
14098;SDS011;7126;48.458;7.930;2022-09-01T00:06:53;1.95;;;1.85;;
14098;SDS011;7126;48.458;7.930;2022-09-01T00:09:19;1.55;;;1.55;;
14098;SDS011;7126;48.458;7.930;2022-09-01T00:11:48;1.50;;;1.50;;
14098;SDS011;7126;48.458;7.930;2022-09-01T00:14:16;1.77;;;1.73;;
14098;SDS011;7126;48.458;7.930;2022-09-01T00:16:44;1.75;;;1.67;;
14098;SDS011;7126;48.458;7.930;2022-09-01T00:19:10;1.23;;;1.23;;
14098;SDS011;7126;48.458;7.930;2022-09-01T00:21:38;1.63;;;1.58;;
14098;SDS011;7126;48.458;7.930;2022-09-01T00:24:06;1.60;;;1.50;;
14098;SDS011;7126;48.458;7.930;2022-09-01T00:26:32;1.50;;;1.50;;
14098;SDS011;7126;48.458;7.930;2022-09-01T00:28:58;2.10;;;2.00;;
14098;SDS011;7126;48.458;7.930;2022-09-01T00:31:23;1.58;;;1.58;;
14098;SDS011;7126;48.458;7.930;2022-09-01T00:33:49;1.70;;;1.60;;
14098;SDS011;7126;48.458;7.930;2022-09-01T00:36:16;1.67;;;1.67;;
14098;SDS011;7126;48.458;7.930;2022-09-01T00:38:42;1.30;;;1.30;;
14098;SDS011;7126;48.458;7.930;2022-09-01T00:41:09;1.60;;;1.60;;
14098;SDS011;7126;48.458;7.930;2022-09-01T00:46:11;1.60;;;1.48;;
14098;SDS011;7126;48.458;7.930;2022-09-01T00:48:42;1.35;;;1.35;;
14098;SDS011;7126;48.458;7.930;2022-09-01T00:51:08;1.38;;;1.38;;
14098;SDS011;7126;48.458;7.930;2022-09-01T00:53:36;1.52;;;1.52;;
14098;SDS011;7126;48.458;7.930;2022-09-01T00:56:05;1.48;;;1.48;;
14098;SDS011;7126;48.458;7.930;2022-09-01T00:58:32;1.63;;;1.52;;
14098;SDS011;7126;48.458;7.930;2022-09-01T01:00:59;1.75;;;1.65;;
14098;SDS011;7126;48.458;7.930;2022-09-01T01:03:26;1.80;;;1.70;;
14098;SDS011;7126;48.458;7.930;2022-09-01T01:05:54;1.33;;;1.33;;
14098;SDS011;7126;48.458;7.930;2022-09-01T01:08:23;1.50;;;1.50;;
14098;SDS011;7126;48.458;7.930;2022-09-01T01:10:58;1.42;;;1.42;;
14098;SDS011;7126;48.458;7.930;2022-09-01T01:13:29;1.60;;;1.50;;
14098;SDS011;7126;48.458;7.930;2022-09-01T01:15:59;2.00;;;1.90;;
14098;SDS011;7126;48.458;7.930;2022-09-01T01:18:26;1.35;;;1.35;;
14098;SDS011;7126;48.458;7.930;2022-09-01T01:20:57;1.38;;;1.38;;
14098;SDS011;7126;48.458;7.930;2022-09-01T01:23:51;1.65;;;1.60;;
14098;SDS011;7126;48.458;7.930;2022-09-01T01:26:26;1.23;;;1.23;;
14098;SDS011;7126;48.458;7.930;2022-09-01T01:28:52;1.48;;;1.40;;
14098;SDS011;7126;48.458;7.930;2022-09-01T01:31:19;2.10;;;2.00;;
14098;SDS011;7126;48.458;7.930;2022-09-01T01:33:51;1.63;;;1.52;;
14098;SDS011;7126;48.458;7.930;2022-09-01T01:39:04;1.67;;;1.67;;
14098;SDS011;7126;48.458;7.930;2022-09-01T01:41:35;2.03;;;1.83;;
14098;SDS011;7126;48.458;7.930;2022-09-01T01:44:06;1.80;;;1.70;;
14098;SDS011;7126;48.458;7.930;2022-09-01T01:46:32;1.77;;;1.67;;
14098;SDS011;7126;48.458;7.930;2022-09-01T01:48:59;1.90;;;1.77;;
14098;SDS011;7126;48.458;7.930;2022-09-01T01:51:26;1.58;;;1.58;;
14098;SDS011;7126;48.458;7.930;2022-09-01T01:56:23;1.58;;;1.48;;
14098;SDS011;7126;48.458;7.930;2022-09-01T01:58:53;1.98;;;1.90;;
14098;SDS011;7126;48.458;7.930;2022-09-01T02:01:21;1.45;;;1.42;;
14098;SDS011;7126;48.458;7.930;2022-09-01T02:03:49;1.83;;;1.73;;
14098;SDS011;7126;48.458;7.930;2022-09-01T02:06:18;1.50;;;1.40;;
14098;SDS011;7126;48.458;7.930;2022-09-01T02:08:45;1.52;;;1.48;;
14098;SDS011;7126;48.458;7.930;2022-09-01T02:11:11;1.35;;;1.35;;
14098;SDS011;7126;48.458;7.930;2022-09-01T02:13:37;1.60;;;1.60;;
14098;SDS011;7126;48.458;7.930;2022-09-01T02:16:05;2.00;;;2.00;;
14098;SDS011;7126;48.458;7.930;2022-09-01T02:18:37;1.50;;;1.50;;
14098;SDS011;7126;48.458;7.930;2022-09-01T02:21:07;1.60;;;1.60;;
14098;SDS011;7126;48.458;7.930;2022-09-01T02:23:36;1.63;;;1.52;;
14098;SDS011;7126;48.458;7.930;2022-09-01T02:26:04;1.45;;;1.35;;
14098;SDS011;7126;48.458;7.930;2022-09-01T02:28:34;1.83;;;1.73;;
14098;SDS011;7126;48.458;7.930;2022-09-01T02:31:03;1.90;;;1.80;;
14098;SDS011;7126;48.458;7.930;2022-09-01T02:33:33;1.73;;;1.63;;
14098;SDS011;7126;48.458;7.930;2022-09-01T02:36:01;1.58;;;1.58;;
14098;SDS011;7126;48.458;7.930;2022-09-01T02:38:37;1.90;;;1.80;;
14098;SDS011;7126;48.458;7.930;2022-09-01T02:41:03;1.83;;;1.73;;
14098;SDS011;7126;48.458;7.930;2022-09-01T02:43:29;2.03;;;1.92;;
14098;SDS011;7126;48.458;7.930;2022-09-01T02:45:56;1.95;;;1.85;;
14098;SDS011;7126;48.458;7.930;2022-09-01T02:48:28;1.55;;;1.40;;
14098;SDS011;7126;48.458;7.930;2022-09-01T02:51:00;2.22;;;1.85;;
14098;SDS011;7126;48.458;7.930;2022-09-01T02:53:27;1.70;;;1.55;;
14098;SDS011;7126;48.458;7.930;2022-09-01T02:55:54;1.25;;;1.25;;
14098;SDS011;7126;48.458;7.930;2022-09-01T02:58:25;1.75;;;1.65;;
14098;SDS011;7126;48.458;7.930;2022-09-01T03:00:52;1.02;;;1.02;;
14098;SDS011;7126;48.458;7.930;2022-09-01T03:03:21;1.58;;;1.50;;
14098;SDS011;7126;48.458;7.930;2022-09-01T03:05:49;1.60;;;1.50;;
14098;SDS011;7126;48.458;7.930;2022-09-01T03:08:20;1.48;;;1.48;;
14098;SDS011;7126;48.458;7.930;2022-09-01T03:10:48;1.50;;;1.40;;
14098;SDS011;7126;48.458;7.930;2022-09-01T03:13:18;1.58;;;1.55;;
14098;SDS011;7126;48.458;7.930;2022-09-01T03:15:45;1.65;;;1.65;;
14098;SDS011;7126;48.458;7.930;2022-09-01T03:18:12;1.92;;;1.83;;
14098;SDS011;7126;48.458;7.930;2022-09-01T03:20:39;1.80;;;1.70;;
14098;SDS011;7126;48.458;7.930;2022-09-01T03:23:07;1.80;;;1.70;;
14098;SDS011;7126;48.458;7.930;2022-09-01T03:25:38;2.05;;;1.95;;
14098;SDS011;7126;48.458;7.930;2022-09-01T03:28:05;1.92;;;1.83;;
14098;SDS011;7126;48.458;7.930;2022-09-01T03:30:33;1.88;;;1.77;;
14098;SDS011;7126;48.458;7.930;2022-09-01T03:33:00;1.95;;;1.85;;
14098;SDS011;7126;48.458;7.930;2022-09-01T03:35:27;2.28;;;2.17;;
14098;SDS011;7126;48.458;7.930;2022-09-01T03:37:55;2.08;;;1.98;;
14098;SDS011;7126;48.458;7.930;2022-09-01T03:40:23;1.98;;;1.88;;
14098;SDS011;7126;48.458;7.930;2022-09-01T03:42:51;2.10;;;2.00;;
14098;SDS011;7126;48.458;7.930;2022-09-01T03:45:19;1.95;;;1.85;;
14098;SDS011;7126;48.458;7.930;2022-09-01T03:47:45;1.58;;;1.58;;
14098;SDS011;7126;48.458;7.930;2022-09-01T03:50:15;2.95;;;1.70;;
14098;SDS011;7126;48.458;7.930;2022-09-01T03:52:46;2.20;;;2.10;;
14098;SDS011;7126;48.458;7.930;2022-09-01T03:55:17;2.00;;;1.80;;
14098;SDS011;7126;48.458;7.930;2022-09-01T03:57:50;1.55;;;1.55;;
14098;SDS011;7126;48.458;7.930;2022-09-01T04:00:18;1.85;;;1.75;;
14098;SDS011;7126;48.458;7.930;2022-09-01T04:02:47;1.98;;;1.88;;
14098;SDS011;7126;48.458;7.930;2022-09-01T04:05:16;2.08;;;1.98;;
14098;SDS011;7126;48.458;7.930;2022-09-01T04:07:44;1.98;;;1.80;;
14098;SDS011;7126;48.458;7.930;2022-09-01T04:10:10;1.73;;;1.67;;
14098;SDS011;7126;48.458;7.930;2022-09-01T04:12:36;2.28;;;2.08;;
14098;SDS011;7126;48.458;7.930;2022-09-01T04:15:03;1.65;;;1.65;;
14098;SDS011;7126;48.458;7.930;2022-09-01T04:17:30;2.13;;;2.03;;
14098;SDS011;7126;48.458;7.930;2022-09-01T04:20:14;2.03;;;1.92;;
14098;SDS011;7126;48.458;7.930;2022-09-01T04:22:44;1.95;;;1.85;;
14098;SDS011;7126;48.458;7.930;2022-09-01T04:25:11;1.77;;;1.73;;
14098;SDS011;7126;48.458;7.930;2022-09-01T04:27:40;3.10;;;2.47;;
14098;SDS011;7126;48.458;7.930;2022-09-01T04:30:08;1.70;;;1.67;;
14098;SDS011;7126;48.458;7.930;2022-09-01T04:32:37;1.80;;;1.70;;
14098;SDS011;7126;48.458;7.930;2022-09-01T04:35:04;2.00;;;1.90;;
14098;SDS011;7126;48.458;7.930;2022-09-01T04:37:31;1.77;;;1.67;;
14098;SDS011;7126;48.458;7.930;2022-09-01T04:40:00;1.67;;;1.63;;
14098;SDS011;7126;48.458;7.930;2022-09-01T04:42:28;2.22;;;2.05;;
14098;SDS011;7126;48.458;7.930;2022-09-01T04:44:56;1.45;;;1.35;;
14098;SDS011;7126;48.458;7.930;2022-09-01T04:47:24;1.70;;;1.60;;
14098;SDS011;7126;48.458;7.930;2022-09-01T04:49:57;2.17;;;2.08;;
14098;SDS011;7126;48.458;7.930;2022-09-01T04:52:27;1.83;;;1.73;;
14098;SDS011;7126;48.458;7.930;2022-09-01T04:54:52;1.42;;;1.42;;
14098;SDS011;7126;48.458;7.930;2022-09-01T04:57:19;2.05;;;1.63;;
14098;SDS011;7126;48.458;7.930;2022-09-01T04:59:45;2.30;;;1.67;;
14098;SDS011;7126;48.458;7.930;2022-09-01T05:02:11;1.77;;;1.67;;
14098;SDS011;7126;48.458;7.930;2022-09-01T05:04:37;2.47;;;2.15;;
14098;SDS011;7126;48.458;7.930;2022-09-01T05:07:08;2.45;;;2.28;;
14098;SDS011;7126;48.458;7.930;2022-09-01T05:09:35;2.03;;;1.83;;
14098;SDS011;7126;48.458;7.930;2022-09-01T05:12:02;1.50;;;1.45;;
14098;SDS011;7126;48.458;7.930;2022-09-01T05:14:41;1.95;;;1.92;;
14098;SDS011;7126;48.458;7.930;2022-09-01T05:17:09;2.13;;;2.03;;
14098;SDS011;7126;48.458;7.930;2022-09-01T05:19:39;2.95;;;2.00;;
14098;SDS011;7126;48.458;7.930;2022-09-01T05:22:07;2.05;;;1.95;;
14098;SDS011;7126;48.458;7.930;2022-09-01T05:24:34;2.00;;;2.00;;
14098;SDS011;7126;48.458;7.930;2022-09-01T05:27:00;2.15;;;1.80;;
14098;SDS011;7126;48.458;7.930;2022-09-01T05:29:28;1.85;;;1.80;;
14098;SDS011;7126;48.458;7.930;2022-09-01T05:31:54;1.95;;;1.85;;
14098;SDS011;7126;48.458;7.930;2022-09-01T05:34:20;1.80;;;1.70;;
14098;SDS011;7126;48.458;7.930;2022-09-01T05:36:56;1.55;;;1.48;;
14098;SDS011;7126;48.458;7.930;2022-09-01T05:39:24;1.50;;;1.50;;
14098;SDS011;7126;48.458;7.930;2022-09-01T05:41:51;1.77;;;1.70;;
14098;SDS011;7126;48.458;7.930;2022-09-01T05:44:17;2.08;;;1.98;;
14098;SDS011;7126;48.458;7.930;2022-09-01T05:46:47;1.90;;;1.83;;
14098;SDS011;7126;48.458;7.930;2022-09-01T05:49:13;3.58;;;2.63;;
14098;SDS011;7126;48.458;7.930;2022-09-01T05:51:43;2.35;;;2.25;;
14098;SDS011;7126;48.458;7.930;2022-09-01T05:54:13;1.35;;;1.35;;
14098;SDS011;7126;48.458;7.930;2022-09-01T05:56:45;2.78;;;1.83;;
14098;SDS011;7126;48.458;7.930;2022-09-01T05:59:11;2.42;;;2.25;;
14098;SDS011;7126;48.458;7.930;2022-09-01T06:01:39;1.98;;;1.95;;
14098;SDS011;7126;48.458;7.930;2022-09-01T06:04:05;2.17;;;2.08;;
14098;SDS011;7126;48.458;7.930;2022-09-01T06:06:35;2.38;;;2.20;;
14098;SDS011;7126;48.458;7.930;2022-09-01T06:09:05;2.50;;;2.38;;
14098;SDS011;7126;48.458;7.930;2022-09-01T06:11:31;2.80;;;2.22;;
14098;SDS011;7126;48.458;7.930;2022-09-01T06:13:58;1.90;;;1.80;;
14098;SDS011;7126;48.458;7.930;2022-09-01T06:16:24;2.30;;;2.10;;
14098;SDS011;7126;48.458;7.930;2022-09-01T06:18:52;1.92;;;1.85;;
14098;SDS011;7126;48.458;7.930;2022-09-01T06:21:19;2.10;;;2.00;;
14098;SDS011;7126;48.458;7.930;2022-09-01T06:23:49;2.45;;;2.33;;
14098;SDS011;7126;48.458;7.930;2022-09-01T06:26:17;1.95;;;1.85;;
14098;SDS011;7126;48.458;7.930;2022-09-01T06:28:54;2.22;;;2.10;;
14098;SDS011;7126;48.458;7.930;2022-09-01T06:31:22;8.70;;;2.33;;
14098;SDS011;7126;48.458;7.930;2022-09-01T06:33:52;2.10;;;2.00;;
14098;SDS011;7126;48.458;7.930;2022-09-01T06:36:22;2.13;;;2.03;;
14098;SDS011;7126;48.458;7.930;2022-09-01T06:38:49;2.30;;;2.20;;
14098;SDS011;7126;48.458;7.930;2022-09-01T06:41:15;1.73;;;1.63;;
14098;SDS011;7126;48.458;7.930;2022-09-01T06:43:44;1.98;;;1.88;;
14098;SDS011;7126;48.458;7.930;2022-09-01T06:46:10;2.30;;;2.15;;
14098;SDS011;7126;48.458;7.930;2022-09-01T06:48:37;2.22;;;2.03;;
14098;SDS011;7126;48.458;7.930;2022-09-01T06:51:04;2.10;;;2.00;;
14098;SDS011;7126;48.458;7.930;2022-09-01T06:53:33;2.42;;;2.22;;
14098;SDS011;7126;48.458;7.930;2022-09-01T06:55:59;2.00;;;1.90;;
14098;SDS011;7126;48.458;7.930;2022-09-01T06:58:24;2.47;;;2.35;;
14098;SDS011;7126;48.458;7.930;2022-09-01T07:00:50;1.77;;;1.67;;
14098;SDS011;7126;48.458;7.930;2022-09-01T07:03:16;1.92;;;1.83;;
14098;SDS011;7126;48.458;7.930;2022-09-01T07:05:46;2.13;;;2.03;;
14098;SDS011;7126;48.458;7.930;2022-09-01T07:08:15;1.70;;;1.60;;
14098;SDS011;7126;48.458;7.930;2022-09-01T07:10:47;2.05;;;1.95;;
14098;SDS011;7126;48.458;7.930;2022-09-01T07:13:18;1.90;;;1.80;;
14098;SDS011;7126;48.458;7.930;2022-09-01T07:15:50;1.55;;;1.45;;
14098;SDS011;7126;48.458;7.930;2022-09-01T07:18:18;2.17;;;2.08;;
14098;SDS011;7126;48.458;7.930;2022-09-01T07:20:45;2.00;;;1.90;;
14098;SDS011;7126;48.458;7.930;2022-09-01T07:23:14;1.52;;;1.52;;
14098;SDS011;7126;48.458;7.930;2022-09-01T07:25:42;1.70;;;1.60;;
14098;SDS011;7126;48.458;7.930;2022-09-01T07:28:11;1.83;;;1.73;;
14098;SDS011;7126;48.458;7.930;2022-09-01T07:30:47;1.40;;;1.33;;
14098;SDS011;7126;48.458;7.930;2022-09-01T07:33:17;1.70;;;1.60;;
14098;SDS011;7126;48.458;7.930;2022-09-01T07:35:46;1.83;;;1.67;;
14098;SDS011;7126;48.458;7.930;2022-09-01T07:38:11;1.83;;;1.73;;
14098;SDS011;7126;48.458;7.930;2022-09-01T07:40:38;2.00;;;1.90;;
14098;SDS011;7126;48.458;7.930;2022-09-01T07:43:06;1.58;;;1.48;;
14098;SDS011;7126;48.458;7.930;2022-09-01T07:45:46;2.38;;;2.17;;
14098;SDS011;7126;48.458;7.930;2022-09-01T07:48:15;1.70;;;1.65;;
14098;SDS011;7126;48.458;7.930;2022-09-01T07:50:46;1.58;;;1.48;;
14098;SDS011;7126;48.458;7.930;2022-09-01T07:53:15;1.70;;;1.60;;
14098;SDS011;7126;48.458;7.930;2022-09-01T07:55:42;1.88;;;1.77;;
14098;SDS011;7126;48.458;7.930;2022-09-01T07:58:13;2.47;;;2.28;;
14098;SDS011;7126;48.458;7.930;2022-09-01T08:00:39;1.92;;;1.80;;
14098;SDS011;7126;48.458;7.930;2022-09-01T08:03:11;2.08;;;1.98;;
14098;SDS011;7126;48.458;7.930;2022-09-01T08:05:38;1.95;;;1.85;;
14098;SDS011;7126;48.458;7.930;2022-09-01T08:08:04;1.80;;;1.70;;
14098;SDS011;7126;48.458;7.930;2022-09-01T08:10:30;1.15;;;1.15;;
14098;SDS011;7126;48.458;7.930;2022-09-01T08:12:56;1.45;;;1.42;;
14098;SDS011;7126;48.458;7.930;2022-09-01T08:15:22;1.30;;;1.30;;
14098;SDS011;7126;48.458;7.930;2022-09-01T08:17:48;1.25;;;1.25;;
14098;SDS011;7126;48.458;7.930;2022-09-01T08:20:14;1.10;;;1.10;;
14098;SDS011;7126;48.458;7.930;2022-09-01T08:22:39;1.27;;;1.27;;
14098;SDS011;7126;48.458;7.930;2022-09-01T08:25:08;1.15;;;1.15;;
14098;SDS011;7126;48.458;7.930;2022-09-01T08:27:35;1.52;;;1.42;;
14098;SDS011;7126;48.458;7.930;2022-09-01T08:30:04;1.58;;;1.58;;
14098;SDS011;7126;48.458;7.930;2022-09-01T08:32:31;1.15;;;1.15;;
14098;SDS011;7126;48.458;7.930;2022-09-01T08:34:57;1.63;;;1.52;;
14098;SDS011;7126;48.458;7.930;2022-09-01T08:37:23;1.38;;;1.17;;
14098;SDS011;7126;48.458;7.930;2022-09-01T08:39:49;1.75;;;1.70;;
14098;SDS011;7126;48.458;7.930;2022-09-01T08:42:51;1.38;;;1.38;;
14098;SDS011;7126;48.458;7.930;2022-09-01T08:45:22;1.20;;;1.20;;
14098;SDS011;7126;48.458;7.930;2022-09-01T08:47:51;1.10;;;1.10;;
14098;SDS011;7126;48.458;7.930;2022-09-01T08:50:20;1.48;;;1.38;;
14098;SDS011;7126;48.458;7.930;2022-09-01T08:52:55;1.52;;;1.42;;
14098;SDS011;7126;48.458;7.930;2022-09-01T08:55:31;1.50;;;1.50;;
14098;SDS011;7126;48.458;7.930;2022-09-01T08:58:02;1.30;;;1.30;;
14098;SDS011;7126;48.458;7.930;2022-09-01T09:00:32;1.25;;;1.25;;
14098;SDS011;7126;48.458;7.930;2022-09-01T09:17:39;1.45;;;1.35;;
14098;SDS011;7126;48.458;7.930;2022-09-01T09:20:10;1.50;;;1.50;;
14098;SDS011;7126;48.458;7.930;2022-09-01T09:22:36;1.42;;;1.33;;
14098;SDS011;7126;48.458;7.930;2022-09-01T09:27:35;1.65;;;1.60;;
14098;SDS011;7126;48.458;7.930;2022-09-01T09:30:04;1.58;;;1.58;;
14098;SDS011;7126;48.458;7.930;2022-09-01T09:35:26;1.08;;;1.08;;
14098;SDS011;7126;48.458;7.930;2022-09-01T09:38:21;1.20;;;1.20;;
14098;SDS011;7126;48.458;7.930;2022-09-01T09:43:27;1.08;;;1.08;;
14098;SDS011;7126;48.458;7.930;2022-09-01T09:49:05;1.00;;;1.00;;
14098;SDS011;7126;48.458;7.930;2022-09-01T09:51:34;1.10;;;1.10;;
14098;SDS011;7126;48.458;7.930;2022-09-01T09:57:11;1.15;;;1.15;;
14098;SDS011;7126;48.458;7.930;2022-09-01T09:59:53;1.20;;;1.20;;
14098;SDS011;7126;48.458;7.930;2022-09-01T10:02:38;1.20;;;1.20;;
14098;SDS011;7126;48.458;7.930;2022-09-01T10:07:46;1.00;;;1.00;;
14098;SDS011;7126;48.458;7.930;2022-09-01T10:10:30;0.95;;;0.95;;
14098;SDS011;7126;48.458;7.930;2022-09-01T10:12:56;0.95;;;0.95;;
14098;SDS011;7126;48.458;7.930;2022-09-01T10:15:24;1.23;;;1.20;;
14098;SDS011;7126;48.458;7.930;2022-09-01T10:17:52;1.95;;;1.20;;
14098;SDS011;7126;48.458;7.930;2022-09-01T10:20:23;1.17;;;1.17;;
14098;SDS011;7126;48.458;7.930;2022-09-01T10:22:50;0.93;;;0.93;;
14098;SDS011;7126;48.458;7.930;2022-09-01T10:25:18;1.25;;;1.25;;
14098;SDS011;7126;48.458;7.930;2022-09-01T10:27:48;0.98;;;0.98;;
14098;SDS011;7126;48.458;7.930;2022-09-01T10:30:17;1.17;;;1.17;;
14098;SDS011;7126;48.458;7.930;2022-09-01T10:35:17;1.20;;;1.20;;
14098;SDS011;7126;48.458;7.930;2022-09-01T10:37:48;0.80;;;0.80;;
14098;SDS011;7126;48.458;7.930;2022-09-01T10:42:58;1.00;;;1.00;;
14098;SDS011;7126;48.458;7.930;2022-09-01T10:45:45;0.90;;;0.90;;
14098;SDS011;7126;48.458;7.930;2022-09-01T10:50:48;1.27;;;1.20;;
14098;SDS011;7126;48.458;7.930;2022-09-01T10:53:58;1.00;;;1.00;;
14098;SDS011;7126;48.458;7.930;2022-09-01T10:56:07;0.98;;;0.98;;
14098;SDS011;7126;48.458;7.930;2022-09-01T11:04:14;0.75;;;0.75;;
14098;SDS011;7126;48.458;7.930;2022-09-01T11:14:56;1.20;;;1.10;;
14098;SDS011;7126;48.458;7.930;2022-09-01T11:17:27;0.95;;;0.95;;
14098;SDS011;7126;48.458;7.930;2022-09-01T11:25:44;1.10;;;1.10;;
14098;SDS011;7126;48.458;7.930;2022-09-01T11:35:41;1.33;;;1.33;;
14098;SDS011;7126;48.458;7.930;2022-09-01T11:38:09;1.10;;;1.10;;
14098;SDS011;7126;48.458;7.930;2022-09-01T11:40:39;1.58;;;0.90;;
14098;SDS011;7126;48.458;7.930;2022-09-01T11:43:14;1.00;;;1.00;;
14098;SDS011;7126;48.458;7.930;2022-09-01T11:45:50;1.08;;;1.02;;
14098;SDS011;7126;48.458;7.930;2022-09-01T11:48:30;0.90;;;0.90;;
14098;SDS011;7126;48.458;7.930;2022-09-01T11:50:57;0.90;;;0.90;;
14098;SDS011;7126;48.458;7.930;2022-09-01T11:53:25;1.10;;;1.10;;
14098;SDS011;7126;48.458;7.930;2022-09-01T11:55:53;1.27;;;1.27;;
14098;SDS011;7126;48.458;7.930;2022-09-01T12:00:53;1.00;;;1.00;;
14098;SDS011;7126;48.458;7.930;2022-09-01T12:05:47;1.00;;;1.00;;
14098;SDS011;7126;48.458;7.930;2022-09-01T12:08:26;1.13;;;1.13;;
14098;SDS011;7126;48.458;7.930;2022-09-01T12:11:30;1.02;;;1.02;;
14098;SDS011;7126;48.458;7.930;2022-09-01T12:13:56;0.82;;;0.82;;
14098;SDS011;7126;48.458;7.930;2022-09-01T12:16:24;0.90;;;0.90;;
14098;SDS011;7126;48.458;7.930;2022-09-01T12:18:52;0.90;;;0.90;;
14098;SDS011;7126;48.458;7.930;2022-09-01T12:21:32;1.00;;;1.00;;
14098;SDS011;7126;48.458;7.930;2022-09-01T12:24:20;0.90;;;0.90;;
14098;SDS011;7126;48.458;7.930;2022-09-01T12:26:49;0.80;;;0.80;;
14098;SDS011;7126;48.458;7.930;2022-09-01T12:29:18;0.95;;;0.95;;
14098;SDS011;7126;48.458;7.930;2022-09-01T12:31:45;1.23;;;1.23;;
14098;SDS011;7126;48.458;7.930;2022-09-01T12:39:45;0.90;;;0.90;;
14098;SDS011;7126;48.458;7.930;2022-09-01T12:44:52;0.80;;;0.80;;
14098;SDS011;7126;48.458;7.930;2022-09-01T12:52:46;0.90;;;0.90;;
14098;SDS011;7126;48.458;7.930;2022-09-01T12:55:19;0.80;;;0.80;;
14098;SDS011;7126;48.458;7.930;2022-09-01T12:57:52;0.85;;;0.85;;
14098;SDS011;7126;48.458;7.930;2022-09-01T13:00:20;0.95;;;0.95;;
14098;SDS011;7126;48.458;7.930;2022-09-01T13:05:26;1.00;;;1.00;;
14098;SDS011;7126;48.458;7.930;2022-09-01T13:07:59;0.80;;;0.80;;
14098;SDS011;7126;48.458;7.930;2022-09-01T13:10:30;1.00;;;1.00;;
14098;SDS011;7126;48.458;7.930;2022-09-01T13:12:58;1.00;;;1.00;;
14098;SDS011;7126;48.458;7.930;2022-09-01T13:15:25;0.82;;;0.82;;
14098;SDS011;7126;48.458;7.930;2022-09-01T13:17:52;0.80;;;0.80;;
14098;SDS011;7126;48.458;7.930;2022-09-01T13:20:18;0.82;;;0.82;;
14098;SDS011;7126;48.458;7.930;2022-09-01T13:22:44;0.95;;;0.95;;
14098;SDS011;7126;48.458;7.930;2022-09-01T13:25:13;0.82;;;0.82;;
14098;SDS011;7126;48.458;7.930;2022-09-01T13:27:42;0.68;;;0.68;;
14098;SDS011;7126;48.458;7.930;2022-09-01T13:30:18;0.90;;;0.90;;
14098;SDS011;7126;48.458;7.930;2022-09-01T13:32:46;1.00;;;1.00;;
14098;SDS011;7126;48.458;7.930;2022-09-01T13:35:13;0.73;;;0.73;;
14098;SDS011;7126;48.458;7.930;2022-09-01T13:37:40;1.00;;;1.00;;
14098;SDS011;7126;48.458;7.930;2022-09-01T13:40:07;0.70;;;0.70;;
14098;SDS011;7126;48.458;7.930;2022-09-01T13:42:43;0.63;;;0.63;;
14098;SDS011;7126;48.458;7.930;2022-09-01T13:45:10;0.90;;;0.90;;
14098;SDS011;7126;48.458;7.930;2022-09-01T13:47:38;0.90;;;0.90;;
14098;SDS011;7126;48.458;7.930;2022-09-01T13:50:08;0.73;;;0.73;;
14098;SDS011;7126;48.458;7.930;2022-09-01T13:52:38;1.10;;;1.08;;
14098;SDS011;7126;48.458;7.930;2022-09-01T13:55:06;1.05;;;1.05;;
14098;SDS011;7126;48.458;7.930;2022-09-01T13:57:34;0.90;;;0.90;;
14098;SDS011;7126;48.458;7.930;2022-09-01T14:00:00;0.90;;;0.90;;
14098;SDS011;7126;48.458;7.930;2022-09-01T14:02:25;0.77;;;0.77;;
14098;SDS011;7126;48.458;7.930;2022-09-01T14:04:51;0.93;;;0.93;;
14098;SDS011;7126;48.458;7.930;2022-09-01T14:07:17;0.80;;;0.80;;
14098;SDS011;7126;48.458;7.930;2022-09-01T14:09:43;1.13;;;1.13;;
14098;SDS011;7126;48.458;7.930;2022-09-01T14:12:09;0.90;;;0.90;;
14098;SDS011;7126;48.458;7.930;2022-09-01T14:14:35;0.90;;;0.90;;
14098;SDS011;7126;48.458;7.930;2022-09-01T14:17:01;0.80;;;0.80;;
14098;SDS011;7126;48.458;7.930;2022-09-01T14:19:27;0.95;;;0.95;;
14098;SDS011;7126;48.458;7.930;2022-09-01T14:21:54;1.00;;;1.00;;
14098;SDS011;7126;48.458;7.930;2022-09-01T14:24:21;0.90;;;0.90;;
14098;SDS011;7126;48.458;7.930;2022-09-01T14:26:47;0.80;;;0.80;;
14098;SDS011;7126;48.458;7.930;2022-09-01T14:29:14;1.10;;;1.10;;
14098;SDS011;7126;48.458;7.930;2022-09-01T14:31:40;0.80;;;0.80;;
14098;SDS011;7126;48.458;7.930;2022-09-01T14:34:07;0.80;;;0.80;;
14098;SDS011;7126;48.458;7.930;2022-09-01T14:36:36;0.82;;;0.82;;
14098;SDS011;7126;48.458;7.930;2022-09-01T14:39:02;1.10;;;1.10;;
14098;SDS011;7126;48.458;7.930;2022-09-01T14:41:29;0.82;;;0.82;;
14098;SDS011;7126;48.458;7.930;2022-09-01T14:43:56;0.90;;;0.90;;
14098;SDS011;7126;48.458;7.930;2022-09-01T14:46:25;0.90;;;0.90;;
14098;SDS011;7126;48.458;7.930;2022-09-01T14:48:54;0.88;;;0.88;;
14098;SDS011;7126;48.458;7.930;2022-09-01T14:51:21;0.90;;;0.90;;
14098;SDS011;7126;48.458;7.930;2022-09-01T14:53:50;1.00;;;1.00;;
14098;SDS011;7126;48.458;7.930;2022-09-01T14:56:16;0.70;;;0.70;;
14098;SDS011;7126;48.458;7.930;2022-09-01T14:58:43;0.73;;;0.73;;
14098;SDS011;7126;48.458;7.930;2022-09-01T15:01:11;0.80;;;0.80;;
14098;SDS011;7126;48.458;7.930;2022-09-01T15:03:44;0.82;;;0.82;;
14098;SDS011;7126;48.458;7.930;2022-09-01T15:06:12;0.70;;;0.70;;
14098;SDS011;7126;48.458;7.930;2022-09-01T15:08:39;0.95;;;0.95;;
14098;SDS011;7126;48.458;7.930;2022-09-01T15:11:09;0.80;;;0.80;;
14098;SDS011;7126;48.458;7.930;2022-09-01T15:13:36;0.98;;;0.98;;
14098;SDS011;7126;48.458;7.930;2022-09-01T15:16:02;0.80;;;0.80;;
14098;SDS011;7126;48.458;7.930;2022-09-01T15:18:29;1.00;;;1.00;;
14098;SDS011;7126;48.458;7.930;2022-09-01T15:20:54;0.70;;;0.70;;
14098;SDS011;7126;48.458;7.930;2022-09-01T15:23:21;0.90;;;0.90;;
14098;SDS011;7126;48.458;7.930;2022-09-01T15:25:50;0.85;;;0.85;;
14098;SDS011;7126;48.458;7.930;2022-09-01T15:28:17;1.00;;;1.00;;
14098;SDS011;7126;48.458;7.930;2022-09-01T15:30:43;0.80;;;0.80;;
14098;SDS011;7126;48.458;7.930;2022-09-01T15:33:10;0.80;;;0.80;;
14098;SDS011;7126;48.458;7.930;2022-09-01T15:35:37;1.10;;;1.10;;
14098;SDS011;7126;48.458;7.930;2022-09-01T15:38:03;0.60;;;0.60;;
14098;SDS011;7126;48.458;7.930;2022-09-01T15:40:29;0.95;;;0.95;;
14098;SDS011;7126;48.458;7.930;2022-09-01T15:42:55;1.00;;;1.00;;
14098;SDS011;7126;48.458;7.930;2022-09-01T15:45:22;1.08;;;1.08;;
14098;SDS011;7126;48.458;7.930;2022-09-01T15:47:48;0.80;;;0.80;;
14098;SDS011;7126;48.458;7.930;2022-09-01T15:50:15;1.13;;;1.13;;
14098;SDS011;7126;48.458;7.930;2022-09-01T15:52:51;1.00;;;1.00;;
14098;SDS011;7126;48.458;7.930;2022-09-01T15:55:27;0.80;;;0.80;;
14098;SDS011;7126;48.458;7.930;2022-09-01T15:57:54;0.93;;;0.93;;
14098;SDS011;7126;48.458;7.930;2022-09-01T16:00:21;0.70;;;0.70;;
14098;SDS011;7126;48.458;7.930;2022-09-01T16:02:49;0.90;;;0.90;;
14098;SDS011;7126;48.458;7.930;2022-09-01T16:05:15;1.05;;;0.98;;
14098;SDS011;7126;48.458;7.930;2022-09-01T16:07:42;0.95;;;0.95;;
14098;SDS011;7126;48.458;7.930;2022-09-01T16:10:08;0.80;;;0.80;;
14098;SDS011;7126;48.458;7.930;2022-09-01T16:12:37;1.00;;;1.00;;
14098;SDS011;7126;48.458;7.930;2022-09-01T16:15:09;0.90;;;0.90;;
14098;SDS011;7126;48.458;7.930;2022-09-01T16:20:35;0.90;;;0.90;;
14098;SDS011;7126;48.458;7.930;2022-09-01T16:23:21;0.90;;;0.90;;
14098;SDS011;7126;48.458;7.930;2022-09-01T16:25:51;1.00;;;1.00;;
14098;SDS011;7126;48.458;7.930;2022-09-01T16:28:28;1.02;;;1.02;;
14098;SDS011;7126;48.458;7.930;2022-09-01T16:31:01;0.82;;;0.82;;
14098;SDS011;7126;48.458;7.930;2022-09-01T16:33:34;0.95;;;0.95;;
14098;SDS011;7126;48.458;7.930;2022-09-01T16:47:45;0.85;;;0.85;;
14098;SDS011;7126;48.458;7.930;2022-09-01T16:50:22;0.82;;;0.82;;
14098;SDS011;7126;48.458;7.930;2022-09-01T16:53:08;0.95;;;0.95;;
14098;SDS011;7126;48.458;7.930;2022-09-01T16:55:54;0.90;;;0.90;;
14098;SDS011;7126;48.458;7.930;2022-09-01T16:59:06;0.80;;;0.80;;
14098;SDS011;7126;48.458;7.930;2022-09-01T17:15:12;0.93;;;0.93;;
14098;SDS011;7126;48.458;7.930;2022-09-01T17:17:45;0.90;;;0.90;;